createdAt,value
2018-12-06T00:01:00.486Z,99.90
2018-12-06T00:03:28.404Z,99.90
2018-12-06T00:05:56.321Z,99.90
2018-12-06T00:08:24.249Z,99.90
2018-12-06T00:10:52.141Z,99.90
2018-12-06T00:13:20.059Z,99.90
2018-12-06T00:15:48.001Z,99.90
2018-12-06T00:18:15.965Z,99.90
2018-12-06T00:20:44.038Z,99.90
2018-12-06T00:23:11.977Z,99.90
2018-12-06T00:25:39.883Z,99.90
2018-12-06T00:28:07.783Z,99.90
2018-12-06T00:30:38.694Z,99.90
2018-12-06T00:33:06.617Z,99.90
2018-12-06T00:35:35.074Z,99.90
2018-12-06T00:38:03.004Z,99.90
2018-12-06T00:40:30.931Z,99.90
2018-12-06T00:42:58.850Z,99.90
2018-12-06T00:45:26.806Z,99.90
2018-12-06T00:47:54.730Z,99.90
2018-12-06T00:50:22.684Z,99.90
2018-12-06T00:52:51.623Z,99.90
2018-12-06T00:55:19.546Z,99.90
2018-12-06T00:57:47.468Z,99.90
2018-12-06T01:00:16.686Z,99.90
2018-12-06T01:02:44.643Z,99.90
2018-12-06T01:05:12.790Z,99.90
2018-12-06T01:07:40.720Z,99.90
2018-12-06T01:10:08.805Z,99.90
2018-12-06T01:12:36.759Z,99.90
2018-12-06T01:15:05.625Z,99.90
2018-12-06T01:17:33.533Z,99.90
2018-12-06T01:20:01.441Z,99.90
2018-12-06T01:22:29.455Z,99.90
2018-12-06T01:24:57.364Z,99.90
2018-12-06T01:27:25.270Z,99.90
2018-12-06T01:29:53.196Z,99.90
2018-12-06T01:32:21.114Z,99.90
2018-12-06T01:34:49.033Z,99.90
2018-12-06T01:37:16.977Z,99.90
2018-12-06T01:39:44.910Z,99.90
2018-12-06T01:42:12.814Z,99.90
2018-12-06T01:44:40.762Z,99.90
2018-12-06T01:47:08.694Z,99.90
2018-12-06T01:49:36.580Z,99.90
2018-12-06T01:52:04.512Z,99.90
2018-12-06T01:54:32.451Z,99.90
2018-12-06T01:57:00.377Z,99.90
2018-12-06T01:59:28.441Z,99.90
2018-12-06T02:01:56.301Z,99.90
2018-12-06T02:04:24.109Z,99.90
2018-12-06T02:06:51.961Z,99.90
2018-12-06T02:09:19.950Z,99.90
2018-12-06T02:11:47.757Z,99.90
2018-12-06T02:14:15.620Z,99.90
2018-12-06T02:16:43.919Z,99.90
2018-12-06T02:19:12.424Z,99.90
2018-12-06T02:21:40.290Z,99.90
2018-12-06T02:24:08.113Z,99.90
2018-12-06T02:26:35.997Z,99.90
2018-12-06T02:29:03.968Z,99.90
2018-12-06T02:31:31.797Z,99.90
2018-12-06T02:33:59.633Z,99.90
2018-12-06T02:36:27.469Z,99.90
2018-12-06T02:38:55.316Z,99.90
2018-12-06T02:41:23.292Z,99.90
2018-12-06T02:43:51.259Z,99.90
2018-12-06T02:46:19.082Z,99.90
2018-12-06T02:48:46.912Z,99.90
2018-12-06T02:51:14.740Z,99.90
2018-12-06T02:53:42.537Z,99.90
2018-12-06T02:56:10.353Z,99.90
2018-12-06T02:58:38.245Z,99.90
2018-12-06T03:01:06.114Z,99.90
2018-12-06T03:03:34.000Z,99.90
2018-12-06T03:06:01.829Z,99.90
2018-12-06T03:08:29.649Z,99.90
2018-12-06T03:10:57.485Z,99.90
2018-12-06T03:13:25.439Z,99.90
2018-12-06T03:15:54.240Z,99.90
2018-12-06T03:21:19.426Z,99.90
2018-12-06T03:23:47.240Z,99.90
2018-12-06T03:26:15.035Z,99.90
2018-12-06T03:28:42.892Z,99.90
2018-12-06T03:31:10.676Z,99.90
2018-12-06T03:33:38.519Z,99.90
2018-12-06T03:36:06.493Z,99.90
2018-12-06T03:38:34.293Z,99.90
2018-12-06T03:41:03.376Z,99.90
2018-12-06T03:43:31.252Z,99.90
2018-12-06T03:45:59.476Z,99.90
2018-12-06T03:48:27.281Z,99.90
2018-12-06T03:50:55.148Z,99.90
2018-12-06T03:53:22.943Z,99.90
2018-12-06T03:55:50.741Z,99.90
2018-12-06T03:58:19.316Z,99.90
2018-12-06T04:00:47.164Z,99.90
2018-12-06T04:03:16.571Z,99.90
2018-12-06T04:05:44.403Z,99.90
2018-12-06T04:08:12.209Z,99.90
2018-12-06T04:10:40.030Z,99.90
2018-12-06T04:13:07.862Z,99.90
2018-12-06T04:15:35.665Z,99.90
2018-12-06T04:18:04.726Z,99.90
2018-12-06T04:20:32.536Z,99.90
2018-12-06T04:23:38.114Z,99.90
2018-12-06T04:26:05.979Z,99.90
2018-12-06T04:28:33.768Z,99.90
2018-12-06T04:31:01.874Z,99.90
2018-12-06T04:33:31.753Z,99.90
2018-12-06T04:35:59.573Z,99.90
2018-12-06T04:38:27.645Z,99.90
2018-12-06T04:40:55.531Z,99.90
2018-12-06T04:43:23.424Z,99.90
2018-12-06T04:45:51.358Z,99.90
2018-12-06T04:48:22.202Z,99.90
2018-12-06T04:50:49.154Z,99.90
2018-12-06T04:53:16.962Z,99.90
2018-12-06T04:55:44.789Z,99.90
2018-12-06T04:58:12.599Z,99.90
2018-12-06T05:00:41.200Z,99.90
2018-12-06T05:03:09.068Z,99.90
2018-12-06T05:05:36.972Z,99.90
2018-12-06T05:08:04.846Z,99.90
2018-12-06T05:10:32.674Z,99.90
2018-12-06T05:13:01.809Z,99.90
2018-12-06T05:15:29.620Z,99.90
2018-12-06T05:17:57.449Z,99.90
2018-12-06T05:20:42.176Z,99.90
2018-12-06T05:23:09.992Z,99.90
2018-12-06T05:25:37.869Z,99.90
2018-12-06T05:28:05.701Z,99.90
2018-12-06T05:30:33.512Z,99.90
2018-12-06T05:33:01.342Z,99.90
2018-12-06T05:35:29.198Z,99.90
2018-12-06T05:37:57.022Z,99.90
2018-12-06T05:40:24.815Z,99.90
2018-12-06T05:42:52.611Z,99.90
2018-12-06T05:45:20.453Z,99.90
2018-12-06T05:47:48.267Z,99.90
2018-12-06T05:50:16.082Z,99.90
2018-12-06T05:52:43.932Z,99.90
2018-12-06T05:55:11.744Z,99.90
2018-12-06T05:57:39.546Z,99.90
2018-12-06T06:00:08.214Z,99.90
2018-12-06T06:02:36.039Z,99.90
2018-12-06T06:05:05.762Z,99.90
2018-12-06T06:07:33.706Z,99.90
2018-12-06T06:10:01.504Z,99.90
2018-12-06T06:12:29.312Z,99.90
2018-12-06T06:14:57.145Z,99.90
2018-12-06T06:17:27.961Z,99.90
2018-12-06T06:19:55.765Z,99.90
2018-12-06T06:22:30.441Z,99.90
2018-12-06T06:25:04.537Z,99.90
2018-12-06T06:27:33.050Z,99.90
2018-12-06T06:30:05.654Z,99.90
2018-12-06T06:32:33.784Z,99.90
2018-12-06T06:35:08.049Z,99.90
2018-12-06T06:37:35.944Z,99.90
2018-12-06T06:40:06.087Z,99.90
2018-12-06T06:42:34.202Z,99.90
2018-12-06T06:45:03.925Z,99.90
2018-12-06T06:47:32.637Z,99.90
2018-12-06T06:50:00.439Z,99.90
2018-12-06T06:52:28.273Z,99.90
2018-12-06T06:54:56.068Z,99.90
2018-12-06T06:57:23.916Z,99.90
2018-12-06T06:59:51.778Z,99.90
2018-12-06T07:02:19.761Z,99.90
2018-12-06T07:04:47.571Z,99.90
2018-12-06T07:07:16.202Z,99.90
2018-12-06T07:09:44.238Z,99.90
2018-12-06T07:12:12.213Z,99.90
2018-12-06T07:14:40.192Z,99.90
2018-12-06T07:17:08.079Z,99.90
2018-12-06T07:19:35.941Z,99.90
2018-12-06T07:22:04.802Z,99.90
2018-12-06T07:24:32.682Z,99.90
2018-12-06T07:27:00.533Z,99.90
2018-12-06T07:29:28.664Z,99.90
2018-12-06T07:31:56.530Z,99.90
2018-12-06T07:34:24.376Z,99.90
2018-12-06T07:36:52.263Z,99.90
2018-12-06T07:39:20.136Z,99.90
2018-12-06T07:41:48.170Z,99.90
2018-12-06T07:44:16.054Z,99.90
2018-12-06T07:46:44.145Z,99.90
2018-12-06T07:49:11.992Z,99.90
2018-12-06T07:51:39.875Z,99.90
2018-12-06T07:54:07.801Z,99.90
2018-12-06T07:56:35.658Z,99.90
2018-12-06T07:59:03.559Z,99.90
2018-12-06T08:01:31.442Z,99.90
2018-12-06T08:03:59.260Z,99.90
2018-12-06T08:06:27.132Z,99.90
2018-12-06T08:08:54.971Z,99.90
2018-12-06T08:11:22.866Z,99.90
2018-12-06T08:13:50.777Z,99.90
2018-12-06T08:16:18.626Z,99.90
2018-12-06T08:18:46.736Z,99.90
2018-12-06T08:21:14.612Z,99.90
2018-12-06T08:25:11.905Z,99.90
2018-12-06T08:27:39.833Z,99.90
2018-12-06T08:30:07.682Z,99.90
2018-12-06T08:32:35.564Z,99.90
2018-12-06T08:35:03.791Z,99.90
2018-12-06T08:37:31.630Z,99.90
2018-12-06T08:39:59.430Z,99.90
2018-12-06T08:42:27.270Z,99.90
2018-12-06T08:44:55.153Z,99.90
2018-12-06T08:47:22.960Z,99.90
2018-12-06T08:49:50.817Z,99.90
2018-12-06T08:52:18.647Z,99.90
2018-12-06T08:54:46.476Z,99.90
2018-12-06T08:57:14.340Z,99.90
2018-12-06T08:59:42.164Z,99.90
2018-12-06T09:02:09.973Z,99.90
2018-12-06T09:04:37.889Z,99.90
2018-12-06T09:07:05.711Z,99.90
2018-12-06T09:09:33.540Z,99.90
2018-12-06T09:12:01.587Z,99.90
2018-12-06T09:14:29.433Z,99.90
2018-12-06T09:16:57.693Z,99.90
2018-12-06T09:19:25.523Z,99.90
2018-12-06T09:21:53.333Z,99.90
2018-12-06T09:24:21.178Z,99.90
2018-12-06T09:26:49.046Z,99.90
2018-12-06T09:29:16.860Z,99.90
2018-12-06T09:31:44.848Z,99.90
2018-12-06T09:34:12.703Z,99.90
2018-12-06T09:36:40.553Z,99.90
2018-12-06T09:39:09.473Z,99.90
2018-12-06T09:41:37.376Z,99.80
2018-12-06T09:44:05.229Z,99.90
2018-12-06T09:46:33.900Z,99.90
2018-12-06T09:49:03.797Z,99.70
2018-12-06T09:51:31.988Z,99.50
2018-12-06T09:54:00.174Z,99.70
2018-12-06T09:56:28.008Z,99.60
2018-12-06T09:58:55.930Z,99.60
2018-12-06T10:01:24.100Z,99.80
2018-12-06T10:03:51.974Z,99.50
2018-12-06T10:06:19.834Z,99.70
2018-12-06T10:08:47.673Z,99.60
2018-12-06T10:11:15.540Z,99.50
2018-12-06T10:13:43.502Z,99.20
2018-12-06T10:16:11.330Z,99.50
2018-12-06T10:18:40.183Z,99.30
2018-12-06T10:21:08.099Z,99.30
2018-12-06T10:23:37.097Z,99.20
2018-12-06T10:26:04.959Z,99.10
2018-12-06T10:28:32.789Z,98.90
2018-12-06T10:31:01.671Z,98.90
2018-12-06T10:33:29.517Z,98.70
2018-12-06T10:35:57.332Z,98.80
2018-12-06T10:38:25.179Z,98.50
2018-12-06T10:40:53.036Z,98.40
2018-12-06T10:43:20.857Z,98.30
2018-12-06T10:45:48.710Z,98.60
2018-12-06T10:48:17.826Z,98.40
2018-12-06T10:50:45.664Z,98.10
2018-12-06T10:53:13.553Z,98.20
2018-12-06T10:55:41.386Z,97.80
2018-12-06T10:58:09.223Z,97.80
2018-12-06T11:00:42.709Z,97.60
2018-12-06T11:03:16.004Z,97.00
2018-12-06T11:05:44.056Z,96.90
2018-12-06T11:08:11.870Z,96.70
2018-12-06T11:10:39.707Z,96.90
2018-12-06T11:13:07.589Z,96.50
2018-12-06T11:15:36.254Z,96.60
2018-12-06T11:18:04.079Z,96.00
2018-12-06T11:20:32.025Z,95.60
2018-12-06T11:22:59.840Z,95.60
2018-12-06T11:25:27.719Z,94.90
2018-12-06T11:27:55.575Z,95.50
2018-12-06T11:30:23.395Z,94.90
2018-12-06T11:32:51.256Z,94.90
2018-12-06T11:35:19.264Z,94.70
2018-12-06T11:37:47.116Z,94.60
2018-12-06T11:40:14.952Z,94.60
2018-12-06T11:42:42.828Z,94.90
2018-12-06T11:45:10.669Z,95.30
2018-12-06T11:47:38.516Z,95.10
2018-12-06T11:50:07.221Z,94.80
2018-12-06T11:52:35.172Z,94.20
2018-12-06T11:55:03.188Z,94.50
2018-12-06T11:57:31.101Z,94.90
2018-12-06T12:00:16.015Z,95.40
2018-12-06T12:02:43.912Z,95.30
2018-12-06T12:05:11.823Z,95.30
2018-12-06T12:07:40.571Z,95.40
2018-12-06T12:10:08.551Z,95.00
2018-12-06T12:12:36.412Z,95.10
2018-12-06T12:15:07.025Z,95.40
2018-12-06T12:17:35.016Z,94.40
2018-12-06T12:20:03.456Z,94.50
2018-12-06T12:22:31.315Z,94.90
2018-12-06T12:24:59.239Z,94.30
2018-12-06T12:27:27.199Z,93.70
2018-12-06T12:29:55.194Z,93.80
2018-12-06T12:32:23.142Z,93.20
2018-12-06T12:34:51.045Z,93.20
2018-12-06T12:37:18.921Z,92.80
2018-12-06T12:39:46.807Z,92.90
2018-12-06T12:42:14.677Z,92.60
2018-12-06T12:44:42.562Z,92.10
2018-12-06T12:47:10.509Z,92.70
2018-12-06T12:49:38.398Z,91.60
2018-12-06T12:52:06.251Z,92.10
2018-12-06T12:54:35.084Z,91.70
2018-12-06T12:57:02.924Z,91.40
2018-12-06T12:59:30.834Z,91.80
2018-12-06T13:01:58.821Z,91.40
2018-12-06T13:04:26.700Z,90.40
2018-12-06T13:06:56.212Z,91.10
2018-12-06T13:09:24.108Z,91.00
2018-12-06T13:11:52.018Z,91.30
2018-12-06T13:14:19.918Z,90.90
2018-12-06T13:16:47.801Z,90.70
2018-12-06T13:19:15.822Z,90.90
2018-12-06T13:21:43.697Z,90.60
2018-12-06T13:24:11.603Z,91.30
2018-12-06T13:26:39.474Z,91.50
2018-12-06T13:29:07.964Z,91.60
2018-12-06T13:31:37.571Z,90.40
2018-12-06T13:34:05.671Z,91.00
2018-12-06T13:36:33.563Z,91.00
2018-12-06T13:39:01.513Z,91.20
2018-12-06T13:41:31.660Z,90.90
2018-12-06T13:44:00.388Z,91.20
2018-12-06T13:46:29.516Z,90.10
2018-12-06T13:48:57.463Z,90.60
2018-12-06T13:51:25.359Z,90.20
2018-12-06T13:53:53.271Z,90.70
2018-12-06T13:56:22.322Z,91.20
2018-12-06T13:58:50.199Z,91.20
2018-12-06T14:01:18.279Z,89.20
2018-12-06T14:03:48.766Z,90.60
2018-12-06T14:06:16.714Z,90.10
2018-12-06T14:08:45.255Z,90.20
2018-12-06T14:11:13.983Z,90.20
2018-12-06T14:13:42.768Z,90.00
2018-12-06T14:16:12.254Z,90.70
2018-12-06T14:18:40.188Z,90.20
2018-12-06T14:21:08.689Z,90.40
2018-12-06T14:23:37.757Z,91.10
2018-12-06T14:26:06.743Z,91.10
2018-12-06T14:28:35.886Z,90.10
2018-12-06T14:31:03.859Z,90.30
2018-12-06T14:33:31.775Z,90.30
2018-12-06T14:36:00.668Z,91.00
2018-12-06T14:38:30.703Z,91.20
2018-12-06T14:40:58.597Z,91.10
2018-12-06T14:43:26.750Z,90.80
2018-12-06T14:45:55.553Z,91.10
2018-12-06T14:48:24.881Z,91.70
2018-12-06T14:50:53.401Z,91.40
2018-12-06T14:53:21.313Z,91.10
2018-12-06T14:55:49.805Z,91.20
2018-12-06T14:58:19.834Z,91.20
2018-12-06T15:00:47.897Z,91.70
2018-12-06T15:03:16.507Z,91.20
2018-12-06T15:05:46.366Z,91.10
2018-12-06T15:08:16.310Z,91.30
2018-12-06T15:10:46.883Z,91.50
2018-12-06T15:13:14.742Z,91.70
2018-12-06T15:15:42.666Z,91.90
2018-12-06T15:18:11.121Z,92.10
2018-12-06T15:20:39.955Z,92.00
2018-12-06T15:23:08.794Z,91.90
2018-12-06T15:25:41.852Z,92.10
2018-12-06T15:28:08.690Z,92.00
2018-12-06T15:30:37.820Z,91.80
2018-12-06T15:33:09.481Z,92.30
2018-12-06T15:35:42.109Z,92.30
2018-12-06T15:38:23.098Z,92.30
2018-12-06T15:40:51.251Z,92.40
2018-12-06T15:43:20.208Z,91.80
2018-12-06T15:45:48.188Z,92.90
2018-12-06T15:48:21.430Z,93.00
2018-12-06T15:50:50.235Z,92.90
2018-12-06T15:53:19.744Z,92.70
2018-12-06T15:55:48.717Z,92.60
2018-12-06T15:58:18.330Z,92.60
2018-12-06T16:00:46.831Z,92.60
2018-12-06T16:03:16.115Z,92.90
2018-12-06T16:05:46.433Z,93.00
2018-12-06T16:08:16.160Z,93.00
2018-12-06T16:10:45.046Z,92.70
2018-12-06T16:13:15.376Z,93.00
2018-12-06T16:15:45.042Z,92.90
2018-12-06T16:18:15.403Z,92.40
2018-12-06T16:20:45.869Z,93.00
2018-12-06T16:23:16.595Z,92.70
2018-12-06T16:25:46.778Z,92.60
2018-12-06T16:28:17.900Z,92.70
2018-12-06T16:30:46.118Z,92.80
2018-12-06T16:33:18.701Z,92.70
2018-12-06T16:35:48.157Z,92.30
2018-12-06T16:38:19.981Z,92.10
2018-12-06T16:40:49.593Z,92.20
2018-12-06T16:43:18.550Z,92.30
2018-12-06T16:45:52.832Z,92.30
2018-12-06T16:48:26.029Z,92.20
2018-12-06T16:50:54.756Z,92.30
2018-12-06T16:53:25.785Z,92.40
2018-12-06T16:55:57.920Z,92.20
2018-12-06T16:58:29.779Z,92.10
2018-12-06T17:00:58.681Z,92.20
2018-12-06T17:03:28.311Z,92.40
2018-12-06T17:05:59.363Z,92.40
2018-12-06T17:08:33.506Z,92.70
2018-12-06T17:11:03.558Z,92.50
2018-12-06T17:13:35.426Z,92.40
2018-12-06T17:16:05.782Z,92.60
2018-12-06T17:18:40.152Z,92.70
2018-12-06T17:21:09.796Z,92.80
2018-12-06T17:23:41.182Z,92.70
2018-12-06T17:26:10.266Z,92.60
2018-12-06T17:28:41.366Z,92.60
2018-12-06T17:31:11.401Z,92.50
2018-12-06T17:33:40.990Z,93.10
2018-12-06T17:36:11.614Z,93.10
2018-12-06T17:38:42.350Z,93.10
2018-12-06T17:41:13.030Z,93.30
2018-12-06T17:43:43.066Z,93.40
2018-12-06T17:46:15.296Z,93.60
2018-12-06T17:48:47.189Z,93.70
2018-12-06T17:51:17.567Z,93.70
2018-12-06T17:53:55.215Z,93.70
2018-12-06T17:56:30.481Z,93.80
2018-12-06T17:58:59.405Z,94.00
2018-12-06T18:01:29.226Z,94.00
2018-12-06T18:04:00.728Z,93.90
2018-12-06T18:06:35.157Z,94.20
2018-12-06T18:09:06.848Z,93.90
2018-12-06T18:11:39.051Z,94.40
2018-12-06T18:14:10.466Z,94.40
2018-12-06T18:16:39.836Z,94.40
2018-12-06T18:19:09.977Z,94.40
2018-12-06T18:21:43.515Z,94.60
2018-12-06T18:24:18.526Z,94.90
2018-12-06T18:26:47.667Z,95.00
2018-12-06T18:29:21.618Z,95.60
2018-12-06T18:31:51.127Z,95.20
2018-12-06T18:34:22.534Z,95.20
2018-12-06T18:36:54.528Z,95.20
2018-12-06T18:39:23.206Z,95.50
2018-12-06T18:41:51.829Z,95.50
2018-12-06T18:44:23.129Z,95.50
2018-12-06T18:46:55.294Z,95.60
2018-12-06T18:49:24.527Z,95.80
2018-12-06T18:51:53.739Z,95.90
2018-12-06T18:54:25.309Z,96.10
2018-12-06T18:56:53.940Z,96.30
2018-12-06T18:59:25.466Z,96.20
2018-12-06T19:01:55.052Z,96.40
2018-12-06T19:04:28.871Z,96.50
2018-12-06T19:07:00.107Z,96.60
2018-12-06T19:09:29.428Z,96.60
2018-12-06T19:12:00.859Z,96.80
2018-12-06T19:14:32.541Z,97.20
2018-12-06T19:17:03.419Z,97.30
2018-12-06T19:19:32.717Z,97.10
2018-12-06T19:22:02.077Z,97.20
2018-12-06T19:24:31.010Z,97.40
2018-12-06T19:27:02.777Z,97.50
2018-12-06T19:29:35.123Z,97.60
2018-12-06T19:32:09.723Z,97.70
2018-12-06T19:34:42.697Z,97.90
2018-12-06T19:37:15.496Z,97.90
2018-12-06T19:39:47.045Z,98.00
2018-12-06T19:42:18.577Z,98.00
2018-12-06T19:44:48.952Z,98.10
2018-12-06T19:47:19.466Z,98.30
2018-12-06T19:49:48.629Z,98.30
2018-12-06T19:52:19.226Z,98.40
2018-12-06T19:54:49.793Z,98.50
2018-12-06T19:57:22.913Z,98.50
2018-12-06T19:59:56.274Z,98.60
2018-12-06T20:02:24.898Z,98.60
2018-12-06T20:04:55.780Z,98.70
2018-12-06T20:07:29.627Z,98.70
2018-12-06T20:10:01.158Z,98.70
2018-12-06T20:12:37.778Z,98.80
2018-12-06T20:15:07.472Z,98.90
2018-12-06T20:17:37.736Z,99.00
2018-12-06T20:20:09.543Z,99.10
2018-12-06T20:22:42.204Z,99.10
2018-12-06T20:25:11.768Z,99.10
2018-12-06T20:27:45.156Z,99.30
2018-12-06T20:30:18.621Z,99.30
2018-12-06T20:32:49.441Z,99.20
2018-12-06T20:35:21.750Z,99.20
2018-12-06T20:37:50.460Z,99.30
2018-12-06T20:40:22.602Z,99.40
2018-12-06T20:43:00.230Z,99.40
2018-12-06T20:45:31.285Z,99.40
2018-12-06T20:48:02.110Z,99.50
2018-12-06T20:50:30.896Z,99.50
2018-12-06T20:52:59.484Z,99.60
2018-12-06T20:55:29.870Z,99.60
2018-12-06T20:57:59.406Z,99.70
2018-12-06T21:00:29.129Z,99.70
2018-12-06T21:03:02.671Z,99.70
2018-12-06T21:05:33.750Z,99.70
2018-12-06T21:08:03.654Z,99.80
2018-12-06T21:10:33.565Z,99.80
2018-12-06T21:13:04.944Z,99.80
2018-12-06T21:15:35.923Z,99.80
2018-12-06T21:18:07.000Z,99.80
2018-12-06T21:20:40.104Z,99.80
2018-12-06T21:23:10.277Z,99.80
2018-12-06T21:25:42.993Z,99.70
2018-12-06T21:28:13.300Z,99.80
2018-12-06T21:30:42.831Z,99.80
2018-12-06T21:33:21.403Z,99.80
2018-12-06T21:35:53.511Z,99.80
2018-12-06T21:38:22.151Z,99.90
2018-12-06T21:40:52.247Z,99.90
2018-12-06T21:43:23.250Z,99.90
2018-12-06T21:45:53.484Z,99.90
2018-12-06T21:48:24.939Z,99.90
2018-12-06T21:50:57.355Z,99.90
2018-12-06T21:53:27.031Z,99.90
2018-12-06T21:56:00.104Z,99.90
2018-12-06T21:58:28.328Z,99.90
2018-12-06T22:00:57.385Z,99.90
2018-12-06T22:03:28.648Z,99.90
2018-12-06T22:05:57.298Z,99.90
2018-12-06T22:08:26.507Z,99.90
2018-12-06T22:11:13.128Z,99.90
2018-12-06T22:13:42.006Z,99.90
2018-12-06T22:16:13.269Z,99.90
2018-12-06T22:18:42.758Z,99.90
2018-12-06T22:21:10.596Z,99.90
2018-12-06T22:23:38.474Z,99.90
2018-12-06T22:26:11.213Z,99.90
2018-12-06T22:28:39.898Z,99.90
2018-12-06T22:31:17.842Z,99.90
2018-12-06T22:33:48.830Z,99.90
2018-12-06T22:36:16.672Z,99.90
2018-12-06T22:38:53.123Z,99.90
2018-12-06T22:41:26.968Z,99.90
2018-12-06T22:43:54.809Z,99.90
2018-12-06T22:46:23.241Z,99.90
2018-12-06T22:48:52.176Z,99.90
2018-12-06T22:51:24.416Z,99.90
2018-12-06T22:53:53.498Z,99.80
2018-12-06T22:56:22.305Z,99.80
2018-12-06T22:58:50.153Z,99.80
2018-12-06T23:01:22.700Z,99.80
2018-12-06T23:03:51.992Z,99.80
2018-12-06T23:06:19.849Z,99.80
2018-12-06T23:08:47.734Z,99.90
2018-12-06T23:11:16.632Z,99.90
2018-12-06T23:13:44.491Z,99.90
2018-12-06T23:16:12.418Z,99.90
2018-12-06T23:18:40.796Z,99.90
2018-12-06T23:21:09.331Z,99.90
2018-12-06T23:23:37.182Z,99.90
2018-12-06T23:26:06.277Z,99.90
2018-12-06T23:28:35.973Z,99.90
2018-12-06T23:31:03.872Z,99.90
2018-12-06T23:33:32.339Z,99.90
2018-12-06T23:36:00.548Z,99.90
2018-12-06T23:38:28.388Z,99.90
2018-12-06T23:40:56.296Z,99.90
2018-12-06T23:43:24.103Z,99.90
2018-12-06T23:45:52.534Z,99.80
2018-12-06T23:48:20.322Z,99.90
2018-12-06T23:50:48.170Z,99.80
2018-12-06T23:53:16.012Z,99.80
2018-12-06T23:55:43.804Z,99.80
2018-12-06T23:58:11.621Z,99.80
